createdAt,value
2023-09-08T00:04:15.497Z,92.71
2023-09-08T00:09:17.687Z,92.70
2023-09-08T00:14:19.467Z,92.72
2023-09-08T00:19:21.852Z,92.72
2023-09-08T00:24:23.840Z,92.78
2023-09-08T00:29:25.773Z,92.88
2023-09-08T00:34:27.788Z,93.15
2023-09-08T00:39:29.769Z,93.34
2023-09-08T00:44:31.749Z,93.34
2023-09-08T00:49:33.930Z,93.64
2023-09-08T00:54:36.326Z,93.83
2023-09-08T00:59:38.811Z,94.14
2023-09-08T01:04:42.701Z,94.35
2023-09-08T01:09:46.438Z,94.48
2023-09-08T01:14:48.468Z,94.43
2023-09-08T01:19:55.742Z,94.21
2023-09-08T01:25:13.117Z,94.13
2023-09-08T01:30:16.094Z,94.16
2023-09-08T01:35:18.368Z,94.10
2023-09-08T01:40:20.353Z,93.92
2023-09-08T01:45:22.284Z,93.61
2023-09-08T01:50:25.548Z,93.40
2023-09-08T01:55:27.728Z,93.26
2023-09-08T02:00:29.609Z,93.16
2023-09-08T02:05:32.033Z,93.14
2023-09-08T02:10:34.022Z,93.24
2023-09-08T02:15:37.618Z,93.34
2023-09-08T02:20:39.670Z,93.33
2023-09-08T02:25:41.541Z,93.29
2023-09-08T02:30:43.620Z,93.29
2023-09-08T02:35:45.546Z,93.24
2023-09-08T02:40:47.482Z,93.24
2023-09-08T02:45:49.465Z,93.17
2023-09-08T02:50:51.441Z,93.10
2023-09-08T02:55:53.833Z,93.18
2023-09-08T03:00:56.017Z,93.39
2023-09-08T03:06:01.165Z,93.53
2023-09-08T03:11:05.077Z,93.71
2023-09-08T03:16:08.983Z,94.06
2023-09-08T03:21:14.271Z,94.29
2023-09-08T03:26:16.257Z,94.23
2023-09-08T03:31:18.931Z,94.09
2023-09-08T03:36:21.068Z,93.97
2023-09-08T03:41:22.912Z,94.05
2023-09-08T03:46:26.065Z,94.16
2023-09-08T03:51:29.016Z,94.11
2023-09-08T03:56:31.479Z,94.00
2023-09-08T04:01:33.618Z,93.90
2023-09-08T04:06:35.469Z,93.82
2023-09-08T04:11:37.451Z,93.81
2023-09-08T04:16:39.316Z,93.80
2023-09-08T04:21:42.123Z,93.81
2023-09-08T04:26:43.896Z,93.82
2023-09-08T04:31:45.707Z,93.75
2023-09-08T04:36:47.978Z,93.70
2023-09-08T04:41:49.940Z,93.68
2023-09-08T04:46:52.974Z,93.61
2023-09-08T04:51:54.714Z,93.35
2023-09-08T04:57:04.045Z,92.49
2023-09-08T05:02:14.145Z,89.82
2023-09-08T05:07:16.640Z,88.01
2023-09-08T05:12:18.507Z,86.18
2023-09-08T05:17:20.386Z,78.74
2023-09-08T05:22:22.624Z,68.40
2023-09-08T05:27:25.005Z,59.33
2023-09-08T05:32:27.003Z,52.61
2023-09-08T05:37:29.020Z,47.71
2023-09-08T05:42:31.304Z,46.82
2023-09-08T05:47:33.425Z,43.23
2023-09-08T05:52:35.419Z,41.41
2023-09-08T05:57:37.860Z,40.48
2023-09-08T06:02:40.180Z,38.39
2023-09-08T06:07:50.934Z,37.29
2023-09-08T06:12:59.359Z,37.20
2023-09-08T06:18:01.116Z,37.05
2023-09-08T06:23:03.424Z,34.22
2023-09-08T06:28:05.910Z,34.04
2023-09-08T06:33:09.281Z,33.01
2023-09-08T06:38:11.618Z,30.90
2023-09-08T06:43:13.592Z,30.05
2023-09-08T06:48:16.441Z,28.25
2023-09-08T06:53:18.677Z,27.85
2023-09-08T06:58:20.865Z,27.25
2023-09-08T07:03:23.789Z,25.88
2023-09-08T07:08:26.049Z,25.00
2023-09-08T07:13:28.117Z,23.82
2023-09-08T07:18:33.471Z,23.25
2023-09-08T07:23:37.517Z,22.92
2023-09-08T07:28:40.214Z,22.88
2023-09-08T07:33:42.293Z,22.16
2023-09-08T07:38:44.277Z,22.09
2023-09-08T07:43:46.357Z,21.42
2023-09-08T07:48:48.444Z,21.17
2023-09-08T07:53:50.356Z,21.16
2023-09-08T07:58:53.017Z,20.13
2023-09-08T08:03:54.968Z,20.29
2023-09-08T08:08:57.116Z,20.26
2023-09-08T08:13:59.050Z,19.97
2023-09-08T08:19:01.170Z,20.08
2023-09-08T08:24:03.705Z,19.55
2023-09-08T08:29:05.723Z,19.94
2023-09-08T08:34:09.655Z,19.71
2023-09-08T08:39:11.715Z,19.84
2023-09-08T08:44:16.253Z,19.40
2023-09-08T08:49:20.289Z,20.16
2023-09-08T08:54:22.629Z,20.43
2023-09-08T08:59:25.059Z,20.43
2023-09-08T09:04:27.876Z,20.07
2023-09-08T09:09:29.778Z,20.18
2023-09-08T09:14:35.673Z,20.06
2023-09-08T09:19:37.992Z,19.56
2023-09-08T09:24:43.988Z,19.69
2023-09-08T09:29:50.866Z,19.27
2023-09-08T09:34:54.288Z,19.08
2023-09-08T09:39:56.341Z,19.26
2023-09-08T09:45:01.028Z,19.99
2023-09-08T09:50:03.596Z,20.94
2023-09-08T09:55:06.289Z,21.94
2023-09-08T10:00:09.848Z,22.78
2023-09-08T10:05:15.371Z,22.91
2023-09-08T10:10:18.681Z,24.29
2023-09-08T10:15:23.639Z,26.20
2023-09-08T10:20:27.083Z,28.87
2023-09-08T10:25:32.402Z,29.74
2023-09-08T10:30:35.093Z,31.58
2023-09-08T10:35:37.180Z,33.30
2023-09-08T10:40:40.194Z,35.56
2023-09-08T10:45:43.006Z,34.76
2023-09-08T10:50:45.265Z,37.81
2023-09-08T10:55:56.808Z,37.76
2023-09-08T11:01:13.185Z,38.03
2023-09-08T11:06:18.983Z,38.82
2023-09-08T11:11:21.224Z,40.33
2023-09-08T11:16:30.108Z,41.16
2023-09-08T11:21:37.038Z,41.17
2023-09-08T11:26:39.162Z,41.41
2023-09-08T11:31:42.589Z,41.89
2023-09-08T11:36:44.477Z,40.60
2023-09-08T11:41:46.355Z,41.10
2023-09-08T11:46:50.138Z,41.56
2023-09-08T11:51:52.061Z,41.30
2023-09-08T11:56:54.837Z,41.36
2023-09-08T12:01:57.918Z,41.53
2023-09-08T12:07:00.345Z,41.65
2023-09-08T12:12:04.036Z,42.61
2023-09-08T12:17:09.685Z,43.57
2023-09-08T12:22:13.484Z,43.13
2023-09-08T12:27:17.507Z,43.52
2023-09-08T12:32:20.931Z,43.61
2023-09-08T12:37:24.381Z,42.41
2023-09-08T12:42:26.984Z,42.30
2023-09-08T12:47:29.589Z,42.30
2023-09-08T12:52:32.621Z,42.06
2023-09-08T12:57:36.321Z,43.07
2023-09-08T13:02:38.938Z,42.87
2023-09-08T13:07:41.482Z,43.62
2023-09-08T13:12:47.700Z,43.55
2023-09-08T13:17:49.685Z,42.99
2023-09-08T13:22:51.649Z,43.30
2023-09-08T13:27:53.543Z,43.68
2023-09-08T13:32:56.765Z,43.07
2023-09-08T13:38:00.757Z,44.02
2023-09-08T13:43:03.342Z,43.56
2023-09-08T13:48:07.477Z,44.20
2023-09-08T13:53:10.044Z,44.11
2023-09-08T13:58:12.789Z,44.25
2023-09-08T14:03:19.691Z,43.97
2023-09-08T14:13:29.227Z,46.20
2023-09-08T14:18:31.425Z,45.55
2023-09-08T14:23:35.180Z,45.95
2023-09-08T14:28:37.325Z,46.94
2023-09-08T14:33:39.151Z,46.64
2023-09-08T14:38:41.501Z,47.28
2023-09-08T14:43:43.254Z,47.85
2023-09-08T14:48:45.288Z,47.31
2023-09-08T14:53:47.862Z,48.03
2023-09-08T14:58:50.438Z,47.59
2023-09-08T15:03:52.389Z,47.13
2023-09-08T15:08:54.853Z,48.47
2023-09-08T15:13:56.972Z,48.50
2023-09-08T15:18:58.960Z,48.01
2023-09-08T15:24:02.472Z,47.81
2023-09-08T15:29:05.989Z,47.77
2023-09-08T15:34:08.585Z,48.27
2023-09-08T15:39:10.507Z,48.92
2023-09-08T15:44:12.345Z,49.87
2023-09-08T15:49:14.269Z,49.83
2023-09-08T15:54:17.036Z,50.60
2023-09-08T15:59:19.249Z,50.86
2023-09-08T16:04:21.735Z,50.43
2023-09-08T16:09:23.881Z,50.97
2023-09-08T16:14:26.392Z,51.76
2023-09-08T16:19:29.477Z,52.32
2023-09-08T16:24:32.835Z,51.53
2023-09-08T16:29:35.178Z,52.11
2023-09-08T16:34:37.322Z,51.96
2023-09-08T16:39:39.981Z,52.55
2023-09-08T16:44:44.297Z,52.95
2023-09-08T16:49:47.759Z,52.17
2023-09-08T16:54:50.907Z,53.42
2023-09-08T16:59:53.439Z,53.83
2023-09-08T17:04:55.680Z,54.52
2023-09-08T17:09:58.074Z,55.81
2023-09-08T17:15:00.172Z,56.89
2023-09-08T17:20:03.413Z,55.77
2023-09-08T17:25:07.389Z,57.35
2023-09-08T17:30:11.258Z,59.19
2023-09-08T17:35:13.190Z,59.59
2023-09-08T17:40:15.068Z,60.06
2023-09-08T17:45:17.459Z,60.72
2023-09-08T17:50:19.846Z,61.35
2023-09-08T17:55:21.730Z,62.84
2023-09-08T18:00:23.611Z,63.70
2023-09-08T18:05:26.849Z,64.93
2023-09-08T18:10:29.012Z,65.69
2023-09-08T18:15:31.318Z,66.61
2023-09-08T18:20:36.436Z,67.51
2023-09-08T18:25:38.545Z,68.24
2023-09-08T18:30:45.311Z,69.86
2023-09-08T18:35:47.287Z,70.31
2023-09-08T18:40:49.173Z,70.39
2023-09-08T18:45:51.967Z,70.58
2023-09-08T18:50:54.455Z,71.44
2023-09-08T18:55:56.846Z,71.90
2023-09-08T19:01:03.270Z,70.76
2023-09-08T19:06:05.718Z,72.33
2023-09-08T19:11:07.879Z,72.96
2023-09-08T19:16:10.426Z,73.59
2023-09-08T19:21:14.015Z,74.04
2023-09-08T19:26:16.924Z,74.71
2023-09-08T19:31:19.343Z,75.08
2023-09-08T19:36:21.589Z,76.11
2023-09-08T19:41:25.071Z,75.92
2023-09-08T19:46:28.141Z,75.89
2023-09-08T19:51:31.323Z,76.55
2023-09-08T19:56:34.012Z,77.15
2023-09-08T20:01:36.897Z,77.78
2023-09-08T20:06:39.612Z,78.97
2023-09-08T20:11:43.357Z,79.58
2023-09-08T20:16:45.558Z,79.52
2023-09-08T20:21:47.706Z,79.78
2023-09-08T20:26:50.503Z,80.32
2023-09-08T20:31:56.002Z,80.27
2023-09-08T20:36:58.350Z,80.26
2023-09-08T20:42:00.845Z,80.06
2023-09-08T20:47:03.237Z,81.01
2023-09-08T20:52:05.937Z,80.89
2023-09-08T20:57:07.814Z,80.88
2023-09-08T21:02:09.901Z,81.79
2023-09-08T21:07:11.764Z,82.20
2023-09-08T21:12:14.173Z,82.79
2023-09-08T21:17:16.139Z,83.13
2023-09-08T21:22:18.012Z,83.36
2023-09-08T21:27:19.885Z,83.45
2023-09-08T21:32:24.534Z,84.59
2023-09-08T21:37:26.302Z,85.05
2023-09-08T21:42:28.184Z,85.69
2023-09-08T21:47:31.201Z,86.21
2023-09-08T21:52:38.455Z,86.70
2023-09-08T21:57:41.704Z,85.70
2023-09-08T22:02:44.150Z,86.05
2023-09-08T22:07:46.270Z,86.11
2023-09-08T22:12:48.741Z,86.29
2023-09-08T22:17:51.177Z,86.78
2023-09-08T22:22:53.640Z,87.05
2023-09-08T22:27:59.000Z,87.19
2023-09-08T22:33:01.488Z,87.16
2023-09-08T22:38:04.094Z,87.06
2023-09-08T22:43:05.961Z,87.11
2023-09-08T22:48:07.787Z,87.59
2023-09-08T22:53:11.045Z,87.87
2023-09-08T22:58:16.161Z,88.13
2023-09-08T23:03:18.271Z,87.95
2023-09-08T23:08:20.775Z,88.11
2023-09-08T23:13:22.960Z,88.52
2023-09-08T23:18:25.006Z,89.10
2023-09-08T23:23:27.018Z,89.47
2023-09-08T23:28:29.001Z,89.61
2023-09-08T23:33:33.112Z,90.13
2023-09-08T23:38:35.211Z,90.87
2023-09-08T23:43:37.609Z,91.62
2023-09-08T23:48:39.991Z,91.68
2023-09-08T23:53:41.863Z,91.28
2023-09-08T23:58:43.638Z,90.96
